sensor_id;sensor_type;location;lat;lon;timestamp;P1;durP1;ratioP1;P2;durP2;ratioP2
41255;SDS011;26989;45.524;10.938;2023-08-06T00:01:46;3.25;;;1.73;;
41255;SDS011;26989;45.524;10.938;2023-08-06T00:04:13;5.40;;;1.80;;
41255;SDS011;26989;45.524;10.938;2023-08-06T00:06:40;3.08;;;1.98;;
41255;SDS011;26989;45.524;10.938;2023-08-06T00:09:07;3.13;;;1.73;;
41255;SDS011;26989;45.524;10.938;2023-08-06T00:11:34;4.47;;;1.80;;
41255;SDS011;26989;45.524;10.938;2023-08-06T00:14:01;3.30;;;2.00;;
41255;SDS011;26989;45.524;10.938;2023-08-06T00:16:28;4.63;;;2.00;;
41255;SDS011;26989;45.524;10.938;2023-08-06T00:18:55;2.58;;;1.80;;
41255;SDS011;26989;45.524;10.938;2023-08-06T00:21:22;4.47;;;2.00;;
41255;SDS011;26989;45.524;10.938;2023-08-06T00:23:49;4.03;;;2.20;;
41255;SDS011;26989;45.524;10.938;2023-08-06T00:26:15;2.45;;;1.95;;
41255;SDS011;26989;45.524;10.938;2023-08-06T00:28:42;3.30;;;1.90;;
41255;SDS011;26989;45.524;10.938;2023-08-06T00:31:09;5.50;;;2.35;;
41255;SDS011;26989;45.524;10.938;2023-08-06T00:33:36;2.50;;;1.88;;
41255;SDS011;26989;45.524;10.938;2023-08-06T00:36:03;3.08;;;2.10;;
41255;SDS011;26989;45.524;10.938;2023-08-06T00:38:30;4.55;;;2.33;;
41255;SDS011;26989;45.524;10.938;2023-08-06T00:40:57;4.03;;;2.38;;
41255;SDS011;26989;45.524;10.938;2023-08-06T00:43:24;3.35;;;1.98;;
41255;SDS011;26989;45.524;10.938;2023-08-06T00:45:51;3.47;;;2.33;;
41255;SDS011;26989;45.524;10.938;2023-08-06T00:48:18;4.18;;;2.28;;
41255;SDS011;26989;45.524;10.938;2023-08-06T00:50:45;2.97;;;1.95;;
41255;SDS011;26989;45.524;10.938;2023-08-06T00:53:13;4.15;;;2.47;;
41255;SDS011;26989;45.524;10.938;2023-08-06T00:55:40;2.65;;;1.67;;
41255;SDS011;26989;45.524;10.938;2023-08-06T00:58:10;3.92;;;2.03;;
41255;SDS011;26989;45.524;10.938;2023-08-06T01:00:37;2.80;;;2.00;;
41255;SDS011;26989;45.524;10.938;2023-08-06T01:03:05;6.47;;;2.17;;
41255;SDS011;26989;45.524;10.938;2023-08-06T01:05:32;5.63;;;2.20;;
41255;SDS011;26989;45.524;10.938;2023-08-06T01:15:49;4.95;;;2.22;;
41255;SDS011;26989;45.524;10.938;2023-08-06T01:18:21;3.22;;;1.90;;
41255;SDS011;26989;45.524;10.938;2023-08-06T01:20:48;4.28;;;1.95;;
41255;SDS011;26989;45.524;10.938;2023-08-06T01:23:18;1.90;;;1.70;;
41255;SDS011;26989;45.524;10.938;2023-08-06T01:25:49;3.05;;;1.83;;
41255;SDS011;26989;45.524;10.938;2023-08-06T01:28:27;3.70;;;2.00;;
41255;SDS011;26989;45.524;10.938;2023-08-06T01:31:04;2.90;;;2.05;;
41255;SDS011;26989;45.524;10.938;2023-08-06T01:33:36;4.53;;;1.80;;
41255;SDS011;26989;45.524;10.938;2023-08-06T01:36:10;4.30;;;1.75;;
41255;SDS011;26989;45.524;10.938;2023-08-06T01:38:37;2.75;;;1.90;;
41255;SDS011;26989;45.524;10.938;2023-08-06T01:41:04;2.53;;;1.60;;
41255;SDS011;26989;45.524;10.938;2023-08-06T01:43:31;2.53;;;1.55;;
41255;SDS011;26989;45.524;10.938;2023-08-06T01:45:57;3.30;;;2.22;;
41255;SDS011;26989;45.524;10.938;2023-08-06T01:48:24;4.38;;;1.98;;
41255;SDS011;26989;45.524;10.938;2023-08-06T01:50:51;2.45;;;1.50;;
41255;SDS011;26989;45.524;10.938;2023-08-06T01:53:18;3.58;;;1.60;;
41255;SDS011;26989;45.524;10.938;2023-08-06T01:55:49;3.60;;;1.90;;
41255;SDS011;26989;45.524;10.938;2023-08-06T01:58:16;4.45;;;2.42;;
41255;SDS011;26989;45.524;10.938;2023-08-06T02:00:43;4.20;;;2.05;;
41255;SDS011;26989;45.524;10.938;2023-08-06T02:03:10;2.65;;;1.40;;
41255;SDS011;26989;45.524;10.938;2023-08-06T02:05:36;4.50;;;1.60;;
41255;SDS011;26989;45.524;10.938;2023-08-06T02:08:03;4.60;;;1.83;;
41255;SDS011;26989;45.524;10.938;2023-08-06T02:10:30;2.65;;;1.63;;
41255;SDS011;26989;45.524;10.938;2023-08-06T02:12:57;3.05;;;1.83;;
41255;SDS011;26989;45.524;10.938;2023-08-06T02:15:24;3.53;;;2.00;;
41255;SDS011;26989;45.524;10.938;2023-08-06T02:17:51;4.88;;;1.88;;
41255;SDS011;26989;45.524;10.938;2023-08-06T02:20:18;2.60;;;1.83;;
41255;SDS011;26989;45.524;10.938;2023-08-06T02:22:45;3.42;;;1.48;;
41255;SDS011;26989;45.524;10.938;2023-08-06T02:25:12;2.10;;;1.42;;
41255;SDS011;26989;45.524;10.938;2023-08-06T02:27:39;3.00;;;1.40;;
41255;SDS011;26989;45.524;10.938;2023-08-06T02:30:06;2.65;;;2.20;;
41255;SDS011;26989;45.524;10.938;2023-08-06T02:32:33;3.17;;;1.70;;
41255;SDS011;26989;45.524;10.938;2023-08-06T02:35:02;3.00;;;1.30;;
41255;SDS011;26989;45.524;10.938;2023-08-06T02:37:29;2.35;;;1.60;;
41255;SDS011;26989;45.524;10.938;2023-08-06T02:39:56;2.15;;;1.40;;
41255;SDS011;26989;45.524;10.938;2023-08-06T02:42:22;2.50;;;1.80;;
41255;SDS011;26989;45.524;10.938;2023-08-06T02:44:51;2.03;;;1.70;;
41255;SDS011;26989;45.524;10.938;2023-08-06T02:47:18;3.00;;;1.80;;
41255;SDS011;26989;45.524;10.938;2023-08-06T02:49:45;2.22;;;1.45;;
41255;SDS011;26989;45.524;10.938;2023-08-06T02:52:12;3.17;;;1.33;;
41255;SDS011;26989;45.524;10.938;2023-08-06T02:54:39;1.95;;;1.20;;
41255;SDS011;26989;45.524;10.938;2023-08-06T02:57:06;5.72;;;1.60;;
41255;SDS011;26989;45.524;10.938;2023-08-06T02:59:33;1.73;;;1.40;;
41255;SDS011;26989;45.524;10.938;2023-08-06T03:02:00;5.47;;;1.40;;
41255;SDS011;26989;45.524;10.938;2023-08-06T03:04:27;1.80;;;1.38;;
41255;SDS011;26989;45.524;10.938;2023-08-06T03:06:54;3.75;;;2.10;;
41255;SDS011;26989;45.524;10.938;2023-08-06T03:09:20;3.65;;;1.33;;
41255;SDS011;26989;45.524;10.938;2023-08-06T03:11:47;2.50;;;1.40;;
41255;SDS011;26989;45.524;10.938;2023-08-06T03:14:14;7.70;;;1.75;;
41255;SDS011;26989;45.524;10.938;2023-08-06T03:16:41;4.13;;;2.08;;
41255;SDS011;26989;45.524;10.938;2023-08-06T03:19:08;3.92;;;1.20;;
41255;SDS011;26989;45.524;10.938;2023-08-06T03:21:35;4.15;;;1.55;;
41255;SDS011;26989;45.524;10.938;2023-08-06T03:24:02;6.15;;;1.85;;
41255;SDS011;26989;45.524;10.938;2023-08-06T03:26:29;2.38;;;1.30;;
41255;SDS011;26989;45.524;10.938;2023-08-06T03:28:56;1.75;;;1.20;;
41255;SDS011;26989;45.524;10.938;2023-08-06T03:31:23;1.85;;;1.42;;
41255;SDS011;26989;45.524;10.938;2023-08-06T03:33:49;3.15;;;1.20;;
41255;SDS011;26989;45.524;10.938;2023-08-06T03:36:16;3.60;;;1.42;;
41255;SDS011;26989;45.524;10.938;2023-08-06T03:38:43;3.15;;;1.25;;
41255;SDS011;26989;45.524;10.938;2023-08-06T03:41:10;4.63;;;1.20;;
41255;SDS011;26989;45.524;10.938;2023-08-06T03:43:37;2.80;;;1.00;;
41255;SDS011;26989;45.524;10.938;2023-08-06T03:46:04;1.77;;;1.13;;
41255;SDS011;26989;45.524;10.938;2023-08-06T03:48:31;1.88;;;1.17;;
41255;SDS011;26989;45.524;10.938;2023-08-06T03:50:58;4.65;;;1.20;;
41255;SDS011;26989;45.524;10.938;2023-08-06T03:53:27;2.03;;;1.30;;
41255;SDS011;26989;45.524;10.938;2023-08-06T03:55:54;3.28;;;1.40;;
41255;SDS011;26989;45.524;10.938;2023-08-06T03:58:22;1.70;;;1.30;;
41255;SDS011;26989;45.524;10.938;2023-08-06T04:00:50;3.45;;;1.33;;
41255;SDS011;26989;45.524;10.938;2023-08-06T04:03:27;4.50;;;1.48;;
41255;SDS011;26989;45.524;10.938;2023-08-06T04:05:55;2.45;;;1.40;;
41255;SDS011;26989;45.524;10.938;2023-08-06T04:08:21;2.20;;;1.40;;
41255;SDS011;26989;45.524;10.938;2023-08-06T04:10:52;2.65;;;1.10;;
41255;SDS011;26989;45.524;10.938;2023-08-06T04:13:19;2.22;;;1.33;;
41255;SDS011;26989;45.524;10.938;2023-08-06T04:15:46;4.47;;;1.50;;
41255;SDS011;26989;45.524;10.938;2023-08-06T04:18:13;3.50;;;1.27;;
41255;SDS011;26989;45.524;10.938;2023-08-06T04:20:44;1.92;;;1.38;;
41255;SDS011;26989;45.524;10.938;2023-08-06T04:23:12;3.83;;;1.40;;
41255;SDS011;26989;45.524;10.938;2023-08-06T04:25:39;1.88;;;1.30;;
41255;SDS011;26989;45.524;10.938;2023-08-06T04:28:06;1.83;;;1.27;;
41255;SDS011;26989;45.524;10.938;2023-08-06T04:30:34;2.90;;;1.30;;
41255;SDS011;26989;45.524;10.938;2023-08-06T04:33:01;1.20;;;0.88;;
41255;SDS011;26989;45.524;10.938;2023-08-06T04:35:28;3.17;;;1.40;;
41255;SDS011;26989;45.524;10.938;2023-08-06T04:37:55;1.50;;;1.00;;
41255;SDS011;26989;45.524;10.938;2023-08-06T04:40:22;1.33;;;1.20;;
41255;SDS011;26989;45.524;10.938;2023-08-06T04:42:49;2.42;;;1.33;;
41255;SDS011;26989;45.524;10.938;2023-08-06T04:45:16;1.33;;;1.10;;
41255;SDS011;26989;45.524;10.938;2023-08-06T04:47:43;1.50;;;1.08;;
41255;SDS011;26989;45.524;10.938;2023-08-06T04:50:10;0.80;;;0.80;;
41255;SDS011;26989;45.524;10.938;2023-08-06T04:52:37;2.67;;;0.90;;
41255;SDS011;26989;45.524;10.938;2023-08-06T04:55:04;1.08;;;0.88;;
41255;SDS011;26989;45.524;10.938;2023-08-06T04:57:32;1.00;;;0.70;;
41255;SDS011;26989;45.524;10.938;2023-08-06T04:59:59;0.85;;;0.75;;
41255;SDS011;26989;45.524;10.938;2023-08-06T05:02:26;1.08;;;0.88;;
41255;SDS011;26989;45.524;10.938;2023-08-06T05:04:53;2.17;;;0.70;;
41255;SDS011;26989;45.524;10.938;2023-08-06T05:07:20;2.90;;;0.88;;
41255;SDS011;26989;45.524;10.938;2023-08-06T05:09:47;0.60;;;0.60;;
41255;SDS011;26989;45.524;10.938;2023-08-06T05:12:14;2.33;;;0.80;;
41255;SDS011;26989;45.524;10.938;2023-08-06T05:14:41;0.80;;;0.70;;
41255;SDS011;26989;45.524;10.938;2023-08-06T05:17:08;3.25;;;0.60;;
41255;SDS011;26989;45.524;10.938;2023-08-06T05:19:35;1.75;;;0.40;;
41255;SDS011;26989;45.524;10.938;2023-08-06T05:22:02;2.35;;;0.30;;
41255;SDS011;26989;45.524;10.938;2023-08-06T05:24:29;0.85;;;0.50;;
41255;SDS011;26989;45.524;10.938;2023-08-06T05:26:55;0.85;;;0.40;;
41255;SDS011;26989;45.524;10.938;2023-08-06T05:29:22;1.63;;;0.50;;
41255;SDS011;26989;45.524;10.938;2023-08-06T05:31:50;7.00;;;0.70;;
41255;SDS011;26989;45.524;10.938;2023-08-06T05:34:18;7.53;;;0.70;;
41255;SDS011;26989;45.524;10.938;2023-08-06T05:36:45;6.32;;;1.00;;
41255;SDS011;26989;45.524;10.938;2023-08-06T05:39:12;6.22;;;1.27;;
41255;SDS011;26989;45.524;10.938;2023-08-06T05:41:38;8.05;;;1.30;;
41255;SDS011;26989;45.524;10.938;2023-08-06T05:44:05;3.17;;;0.70;;
41255;SDS011;26989;45.524;10.938;2023-08-06T05:46:32;4.38;;;0.60;;
41255;SDS011;26989;45.524;10.938;2023-08-06T05:48:59;6.82;;;1.13;;
41255;SDS011;26989;45.524;10.938;2023-08-06T05:51:26;5.50;;;0.95;;
41255;SDS011;26989;45.524;10.938;2023-08-06T05:53:55;2.97;;;0.93;;
41255;SDS011;26989;45.524;10.938;2023-08-06T05:56:22;2.40;;;0.40;;
41255;SDS011;26989;45.524;10.938;2023-08-06T05:58:48;14.93;;;0.65;;
41255;SDS011;26989;45.524;10.938;2023-08-06T06:01:17;2.83;;;0.75;;
41255;SDS011;26989;45.524;10.938;2023-08-06T06:03:44;1.15;;;0.60;;
41255;SDS011;26989;45.524;10.938;2023-08-06T06:06:11;3.50;;;0.50;;
41255;SDS011;26989;45.524;10.938;2023-08-06T06:08:42;1.75;;;0.68;;
41255;SDS011;26989;45.524;10.938;2023-08-06T06:11:09;2.63;;;0.68;;
41255;SDS011;26989;45.524;10.938;2023-08-06T06:13:35;2.38;;;0.70;;
41255;SDS011;26989;45.524;10.938;2023-08-06T06:16:02;2.22;;;0.73;;
41255;SDS011;26989;45.524;10.938;2023-08-06T06:18:29;2.78;;;0.70;;
41255;SDS011;26989;45.524;10.938;2023-08-06T06:20:56;2.72;;;0.50;;
41255;SDS011;26989;45.524;10.938;2023-08-06T06:23:23;5.88;;;0.80;;
41255;SDS011;26989;45.524;10.938;2023-08-06T06:25:50;2.35;;;0.88;;
41255;SDS011;26989;45.524;10.938;2023-08-06T06:28:18;3.60;;;0.90;;
41255;SDS011;26989;45.524;10.938;2023-08-06T06:30:45;1.00;;;0.70;;
41255;SDS011;26989;45.524;10.938;2023-08-06T06:33:12;1.67;;;0.90;;
41255;SDS011;26989;45.524;10.938;2023-08-06T06:35:41;5.35;;;0.90;;
41255;SDS011;26989;45.524;10.938;2023-08-06T06:38:08;1.98;;;0.80;;
41255;SDS011;26989;45.524;10.938;2023-08-06T06:40:35;1.60;;;1.08;;
41255;SDS011;26989;45.524;10.938;2023-08-06T06:43:03;2.88;;;0.80;;
41255;SDS011;26989;45.524;10.938;2023-08-06T06:45:30;2.13;;;0.88;;
41255;SDS011;26989;45.524;10.938;2023-08-06T06:47:57;3.33;;;1.20;;
41255;SDS011;26989;45.524;10.938;2023-08-06T06:50:24;0.82;;;0.70;;
41255;SDS011;26989;45.524;10.938;2023-08-06T06:52:52;2.97;;;1.42;;
41255;SDS011;26989;45.524;10.938;2023-08-06T06:55:19;1.40;;;0.80;;
41255;SDS011;26989;45.524;10.938;2023-08-06T06:57:46;3.15;;;0.90;;
41255;SDS011;26989;45.524;10.938;2023-08-06T07:00:13;2.70;;;0.90;;
41255;SDS011;26989;45.524;10.938;2023-08-06T07:02:40;4.63;;;0.90;;
41255;SDS011;26989;45.524;10.938;2023-08-06T07:05:07;3.33;;;0.98;;
41255;SDS011;26989;45.524;10.938;2023-08-06T07:07:35;2.78;;;1.00;;
41255;SDS011;26989;45.524;10.938;2023-08-06T07:10:04;4.22;;;1.02;;
41255;SDS011;26989;45.524;10.938;2023-08-06T07:12:32;5.40;;;1.08;;
41255;SDS011;26989;45.524;10.938;2023-08-06T07:14:58;1.23;;;0.60;;
41255;SDS011;26989;45.524;10.938;2023-08-06T07:17:25;3.47;;;0.80;;
41255;SDS011;26989;45.524;10.938;2023-08-06T07:19:52;1.40;;;0.90;;
41255;SDS011;26989;45.524;10.938;2023-08-06T07:22:19;1.95;;;1.00;;
41255;SDS011;26989;45.524;10.938;2023-08-06T07:24:46;2.92;;;0.80;;
41255;SDS011;26989;45.524;10.938;2023-08-06T07:27:13;2.13;;;1.05;;
41255;SDS011;26989;45.524;10.938;2023-08-06T07:29:40;5.55;;;1.20;;
41255;SDS011;26989;45.524;10.938;2023-08-06T07:32:07;3.78;;;1.70;;
41255;SDS011;26989;45.524;10.938;2023-08-06T07:34:34;5.38;;;2.50;;
41255;SDS011;26989;45.524;10.938;2023-08-06T07:37:01;2.53;;;1.40;;
41255;SDS011;26989;45.524;10.938;2023-08-06T07:39:27;1.65;;;1.20;;
41255;SDS011;26989;45.524;10.938;2023-08-06T07:41:55;3.10;;;1.65;;
41255;SDS011;26989;45.524;10.938;2023-08-06T07:44:22;2.90;;;1.40;;
41255;SDS011;26989;45.524;10.938;2023-08-06T07:46:49;3.97;;;1.85;;
41255;SDS011;26989;45.524;10.938;2023-08-06T07:49:16;2.58;;;1.52;;
41255;SDS011;26989;45.524;10.938;2023-08-06T07:51:43;3.85;;;1.63;;
41255;SDS011;26989;45.524;10.938;2023-08-06T07:54:10;6.43;;;1.38;;
41255;SDS011;26989;45.524;10.938;2023-08-06T07:56:37;2.15;;;1.17;;
41255;SDS011;26989;45.524;10.938;2023-08-06T07:59:04;2.97;;;0.98;;
41255;SDS011;26989;45.524;10.938;2023-08-06T08:01:31;3.72;;;1.80;;
41255;SDS011;26989;45.524;10.938;2023-08-06T08:03:58;1.55;;;0.90;;
41255;SDS011;26989;45.524;10.938;2023-08-06T08:06:25;3.15;;;0.98;;
41255;SDS011;26989;45.524;10.938;2023-08-06T08:08:52;1.63;;;0.77;;
41255;SDS011;26989;45.524;10.938;2023-08-06T08:11:19;3.88;;;1.27;;
41255;SDS011;26989;45.524;10.938;2023-08-06T08:13:46;1.60;;;0.85;;
41255;SDS011;26989;45.524;10.938;2023-08-06T08:16:13;2.92;;;0.80;;
41255;SDS011;26989;45.524;10.938;2023-08-06T08:18:40;2.30;;;1.00;;
41255;SDS011;26989;45.524;10.938;2023-08-06T08:21:07;1.15;;;0.88;;
41255;SDS011;26989;45.524;10.938;2023-08-06T08:23:34;4.13;;;0.70;;
41255;SDS011;26989;45.524;10.938;2023-08-06T08:26:01;0.90;;;0.47;;
41255;SDS011;26989;45.524;10.938;2023-08-06T08:28:28;1.35;;;0.68;;
41255;SDS011;26989;45.524;10.938;2023-08-06T08:30:55;3.35;;;0.90;;
41255;SDS011;26989;45.524;10.938;2023-08-06T08:33:22;2.78;;;0.52;;
41255;SDS011;26989;45.524;10.938;2023-08-06T08:35:49;1.08;;;0.55;;
41255;SDS011;26989;45.524;10.938;2023-08-06T08:38:16;1.75;;;0.50;;
41255;SDS011;26989;45.524;10.938;2023-08-06T08:40:45;1.35;;;0.50;;
41255;SDS011;26989;45.524;10.938;2023-08-06T08:43:16;2.15;;;0.63;;
41255;SDS011;26989;45.524;10.938;2023-08-06T08:45:45;0.60;;;0.50;;
41255;SDS011;26989;45.524;10.938;2023-08-06T08:48:16;0.95;;;0.40;;
41255;SDS011;26989;45.524;10.938;2023-08-06T08:50:47;0.50;;;0.50;;
41255;SDS011;26989;45.524;10.938;2023-08-06T08:53:15;1.73;;;0.82;;
41255;SDS011;26989;45.524;10.938;2023-08-06T08:55:43;1.40;;;0.60;;
41255;SDS011;26989;45.524;10.938;2023-08-06T08:58:13;0.95;;;0.55;;
41255;SDS011;26989;45.524;10.938;2023-08-06T09:00:41;2.90;;;0.85;;
41255;SDS011;26989;45.524;10.938;2023-08-06T09:03:08;2.15;;;0.60;;
41255;SDS011;26989;45.524;10.938;2023-08-06T09:05:37;1.60;;;0.73;;
41255;SDS011;26989;45.524;10.938;2023-08-06T09:08:11;0.85;;;0.60;;
41255;SDS011;26989;45.524;10.938;2023-08-06T09:10:42;3.35;;;0.80;;
41255;SDS011;26989;45.524;10.938;2023-08-06T09:13:10;1.13;;;0.77;;
41255;SDS011;26989;45.524;10.938;2023-08-06T09:15:38;1.65;;;0.57;;
41255;SDS011;26989;45.524;10.938;2023-08-06T09:18:11;1.08;;;0.70;;
41255;SDS011;26989;45.524;10.938;2023-08-06T09:20:39;1.67;;;0.80;;
41255;SDS011;26989;45.524;10.938;2023-08-06T09:23:09;2.20;;;0.70;;
41255;SDS011;26989;45.524;10.938;2023-08-06T09:25:39;2.42;;;0.93;;
41255;SDS011;26989;45.524;10.938;2023-08-06T09:28:07;9.65;;;1.30;;
41255;SDS011;26989;45.524;10.938;2023-08-06T09:30:35;2.95;;;0.70;;
41255;SDS011;26989;45.524;10.938;2023-08-06T09:33:03;1.40;;;0.93;;
41255;SDS011;26989;45.524;10.938;2023-08-06T09:35:34;3.10;;;0.85;;
41255;SDS011;26989;45.524;10.938;2023-08-06T09:38:07;2.55;;;0.95;;
41255;SDS011;26989;45.524;10.938;2023-08-06T09:40:36;0.85;;;0.80;;
41255;SDS011;26989;45.524;10.938;2023-08-06T09:43:03;0.68;;;0.63;;
41255;SDS011;26989;45.524;10.938;2023-08-06T09:45:35;3.42;;;1.13;;
41255;SDS011;26989;45.524;10.938;2023-08-06T09:48:07;2.35;;;0.90;;
41255;SDS011;26989;45.524;10.938;2023-08-06T09:53:03;2.40;;;1.23;;
41255;SDS011;26989;45.524;10.938;2023-08-06T09:55:32;2.50;;;0.93;;
41255;SDS011;26989;45.524;10.938;2023-08-06T09:57:59;2.65;;;1.00;;
41255;SDS011;26989;45.524;10.938;2023-08-06T10:00:27;3.05;;;0.88;;
41255;SDS011;26989;45.524;10.938;2023-08-06T10:02:55;2.15;;;0.85;;
41255;SDS011;26989;45.524;10.938;2023-08-06T10:05:26;1.70;;;0.80;;
41255;SDS011;26989;45.524;10.938;2023-08-06T10:07:54;1.15;;;1.00;;
41255;SDS011;26989;45.524;10.938;2023-08-06T10:10:23;0.82;;;0.70;;
41255;SDS011;26989;45.524;10.938;2023-08-06T10:12:51;3.85;;;1.42;;
41255;SDS011;26989;45.524;10.938;2023-08-06T10:15:22;1.55;;;0.90;;
41255;SDS011;26989;45.524;10.938;2023-08-06T10:17:56;2.60;;;0.80;;
41255;SDS011;26989;45.524;10.938;2023-08-06T10:20:25;2.20;;;1.10;;
41255;SDS011;26989;45.524;10.938;2023-08-06T10:22:59;8.52;;;1.73;;
41255;SDS011;26989;45.524;10.938;2023-08-06T10:25:31;2.17;;;1.13;;
41255;SDS011;26989;45.524;10.938;2023-08-06T10:28:00;4.15;;;1.35;;
41255;SDS011;26989;45.524;10.938;2023-08-06T10:30:31;2.25;;;1.30;;
41255;SDS011;26989;45.524;10.938;2023-08-06T10:32:59;3.47;;;1.70;;
41255;SDS011;26989;45.524;10.938;2023-08-06T10:35:28;4.97;;;1.30;;
41255;SDS011;26989;45.524;10.938;2023-08-06T10:37:59;2.00;;;1.20;;
41255;SDS011;26989;45.524;10.938;2023-08-06T10:40:36;5.18;;;1.50;;
41255;SDS011;26989;45.524;10.938;2023-08-06T10:43:06;2.95;;;1.10;;
41255;SDS011;26989;45.524;10.938;2023-08-06T10:45:35;2.88;;;1.80;;
41255;SDS011;26989;45.524;10.938;2023-08-06T10:48:03;2.75;;;1.20;;
41255;SDS011;26989;45.524;10.938;2023-08-06T10:50:31;4.40;;;0.90;;
41255;SDS011;26989;45.524;10.938;2023-08-06T10:53:03;2.95;;;0.82;;
41255;SDS011;26989;45.524;10.938;2023-08-06T10:55:32;1.77;;;0.85;;
41255;SDS011;26989;45.524;10.938;2023-08-06T10:57:59;2.22;;;1.20;;
41255;SDS011;26989;45.524;10.938;2023-08-06T11:00:26;2.83;;;1.40;;
41255;SDS011;26989;45.524;10.938;2023-08-06T11:02:53;3.08;;;1.20;;
41255;SDS011;26989;45.524;10.938;2023-08-06T11:05:21;2.92;;;1.15;;
41255;SDS011;26989;45.524;10.938;2023-08-06T11:07:48;2.92;;;0.80;;
41255;SDS011;26989;45.524;10.938;2023-08-06T11:10:15;1.35;;;0.77;;
41255;SDS011;26989;45.524;10.938;2023-08-06T11:12:42;2.40;;;0.98;;
41255;SDS011;26989;45.524;10.938;2023-08-06T11:15:09;1.27;;;0.82;;
41255;SDS011;26989;45.524;10.938;2023-08-06T11:17:39;2.55;;;0.88;;
41255;SDS011;26989;45.524;10.938;2023-08-06T11:20:07;2.17;;;0.90;;
41255;SDS011;26989;45.524;10.938;2023-08-06T11:22:35;1.52;;;0.80;;
41255;SDS011;26989;45.524;10.938;2023-08-06T11:25:03;0.90;;;0.70;;
41255;SDS011;26989;45.524;10.938;2023-08-06T11:27:31;1.02;;;0.77;;
41255;SDS011;26989;45.524;10.938;2023-08-06T11:29:58;2.40;;;0.95;;
41255;SDS011;26989;45.524;10.938;2023-08-06T11:32:25;1.10;;;0.68;;
41255;SDS011;26989;45.524;10.938;2023-08-06T11:34:54;1.70;;;0.90;;
41255;SDS011;26989;45.524;10.938;2023-08-06T11:37:23;1.85;;;0.65;;
41255;SDS011;26989;45.524;10.938;2023-08-06T11:39:51;0.88;;;0.60;;
41255;SDS011;26989;45.524;10.938;2023-08-06T11:42:19;1.00;;;0.70;;
41255;SDS011;26989;45.524;10.938;2023-08-06T11:44:46;1.95;;;0.70;;
41255;SDS011;26989;45.524;10.938;2023-08-06T11:47:17;0.90;;;0.50;;
41255;SDS011;26989;45.524;10.938;2023-08-06T11:49:46;1.50;;;0.80;;
41255;SDS011;26989;45.524;10.938;2023-08-06T11:57:37;1.05;;;0.63;;
41255;SDS011;26989;45.524;10.938;2023-08-06T12:00:07;1.02;;;0.55;;
41255;SDS011;26989;45.524;10.938;2023-08-06T12:02:41;0.63;;;0.50;;
41255;SDS011;26989;45.524;10.938;2023-08-06T12:07:46;0.30;;;0.30;;
41255;SDS011;26989;45.524;10.938;2023-08-06T12:10:15;0.88;;;0.50;;
41255;SDS011;26989;45.524;10.938;2023-08-06T12:12:43;1.30;;;0.60;;
41255;SDS011;26989;45.524;10.938;2023-08-06T12:15:10;1.80;;;0.50;;
41255;SDS011;26989;45.524;10.938;2023-08-06T12:17:37;0.68;;;0.50;;
41255;SDS011;26989;45.524;10.938;2023-08-06T12:20:05;0.82;;;0.50;;
41255;SDS011;26989;45.524;10.938;2023-08-06T12:22:33;0.88;;;0.43;;
41255;SDS011;26989;45.524;10.938;2023-08-06T12:25:05;2.90;;;0.60;;
41255;SDS011;26989;45.524;10.938;2023-08-06T12:27:35;0.50;;;0.43;;
41255;SDS011;26989;45.524;10.938;2023-08-06T12:30:02;0.55;;;0.43;;
41255;SDS011;26989;45.524;10.938;2023-08-06T12:32:30;0.90;;;0.45;;
41255;SDS011;26989;45.524;10.938;2023-08-06T12:34:58;0.95;;;0.50;;
41255;SDS011;26989;45.524;10.938;2023-08-06T12:37:25;1.58;;;0.30;;
41255;SDS011;26989;45.524;10.938;2023-08-06T12:39:52;0.60;;;0.50;;
41255;SDS011;26989;45.524;10.938;2023-08-06T12:42:19;2.05;;;0.50;;
41255;SDS011;26989;45.524;10.938;2023-08-06T12:44:47;1.77;;;0.57;;
41255;SDS011;26989;45.524;10.938;2023-08-06T12:47:15;2.25;;;0.40;;
41255;SDS011;26989;45.524;10.938;2023-08-06T12:49:43;1.92;;;0.57;;
41255;SDS011;26989;45.524;10.938;2023-08-06T12:52:10;2.53;;;0.68;;
41255;SDS011;26989;45.524;10.938;2023-08-06T12:54:38;0.95;;;0.52;;
41255;SDS011;26989;45.524;10.938;2023-08-06T12:57:06;0.82;;;0.50;;
41255;SDS011;26989;45.524;10.938;2023-08-06T12:59:33;0.50;;;0.40;;
41255;SDS011;26989;45.524;10.938;2023-08-06T13:02:00;1.02;;;0.65;;
41255;SDS011;26989;45.524;10.938;2023-08-06T13:04:27;1.02;;;0.60;;
41255;SDS011;26989;45.524;10.938;2023-08-06T13:06:55;0.98;;;0.60;;
41255;SDS011;26989;45.524;10.938;2023-08-06T13:09:21;1.20;;;0.40;;
41255;SDS011;26989;45.524;10.938;2023-08-06T13:11:48;0.90;;;0.50;;
41255;SDS011;26989;45.524;10.938;2023-08-06T13:14:17;0.73;;;0.50;;
41255;SDS011;26989;45.524;10.938;2023-08-06T13:16:44;0.73;;;0.50;;
41255;SDS011;26989;45.524;10.938;2023-08-06T13:19:11;0.65;;;0.52;;
41255;SDS011;26989;45.524;10.938;2023-08-06T13:24:08;0.50;;;0.38;;
41255;SDS011;26989;45.524;10.938;2023-08-06T13:26:35;0.40;;;0.40;;
41255;SDS011;26989;45.524;10.938;2023-08-06T13:29:02;0.63;;;0.43;;
41255;SDS011;26989;45.524;10.938;2023-08-06T13:31:29;0.80;;;0.45;;
41255;SDS011;26989;45.524;10.938;2023-08-06T13:33:56;0.60;;;0.50;;
41255;SDS011;26989;45.524;10.938;2023-08-06T13:36:26;0.75;;;0.47;;
41255;SDS011;26989;45.524;10.938;2023-08-06T13:38:54;0.88;;;0.60;;
41255;SDS011;26989;45.524;10.938;2023-08-06T13:41:21;0.60;;;0.40;;
41255;SDS011;26989;45.524;10.938;2023-08-06T13:43:49;0.50;;;0.50;;
41255;SDS011;26989;45.524;10.938;2023-08-06T13:46:17;0.60;;;0.60;;
41255;SDS011;26989;45.524;10.938;2023-08-06T13:48:47;2.07;;;0.50;;
41255;SDS011;26989;45.524;10.938;2023-08-06T13:51:17;4.88;;;0.65;;
41255;SDS011;26989;45.524;10.938;2023-08-06T13:53:44;0.57;;;0.50;;
41255;SDS011;26989;45.524;10.938;2023-08-06T13:56:11;1.00;;;0.70;;
41255;SDS011;26989;45.524;10.938;2023-08-06T13:58:41;0.77;;;0.50;;
41255;SDS011;26989;45.524;10.938;2023-08-06T14:01:09;0.88;;;0.68;;
41255;SDS011;26989;45.524;10.938;2023-08-06T14:03:37;0.70;;;0.50;;
41255;SDS011;26989;45.524;10.938;2023-08-06T14:06:04;0.98;;;0.55;;
41255;SDS011;26989;45.524;10.938;2023-08-06T14:08:31;1.80;;;0.60;;
41255;SDS011;26989;45.524;10.938;2023-08-06T14:10:58;2.78;;;0.70;;
41255;SDS011;26989;45.524;10.938;2023-08-06T14:13:25;0.95;;;0.60;;
41255;SDS011;26989;45.524;10.938;2023-08-06T14:15:52;0.82;;;0.60;;
41255;SDS011;26989;45.524;10.938;2023-08-06T14:18:19;1.65;;;0.52;;
41255;SDS011;26989;45.524;10.938;2023-08-06T14:20:46;1.13;;;0.50;;
41255;SDS011;26989;45.524;10.938;2023-08-06T14:23:13;2.28;;;0.68;;
41255;SDS011;26989;45.524;10.938;2023-08-06T14:25:40;3.33;;;0.70;;
41255;SDS011;26989;45.524;10.938;2023-08-06T14:28:07;0.95;;;0.60;;
41255;SDS011;26989;45.524;10.938;2023-08-06T14:30:34;2.75;;;0.68;;
41255;SDS011;26989;45.524;10.938;2023-08-06T14:33:02;1.02;;;0.50;;
41255;SDS011;26989;45.524;10.938;2023-08-06T14:35:49;1.08;;;0.60;;
41255;SDS011;26989;45.524;10.938;2023-08-06T14:38:16;1.00;;;0.60;;
41255;SDS011;26989;45.524;10.938;2023-08-06T14:40:43;1.77;;;0.68;;
41255;SDS011;26989;45.524;10.938;2023-08-06T14:43:10;0.70;;;0.43;;
41255;SDS011;26989;45.524;10.938;2023-08-06T14:45:40;1.03;;;0.60;;
41255;SDS011;26989;45.524;10.938;2023-08-06T14:48:07;0.98;;;0.65;;
41255;SDS011;26989;45.524;10.938;2023-08-06T14:50:34;0.82;;;0.57;;
41255;SDS011;26989;45.524;10.938;2023-08-06T14:53:02;0.70;;;0.40;;
41255;SDS011;26989;45.524;10.938;2023-08-06T14:55:31;3.63;;;0.50;;
41255;SDS011;26989;45.524;10.938;2023-08-06T14:58:00;0.98;;;0.52;;